Home > Products > Valid Products > MTR

000
SAUS45 KMSO 300254
MTRP69
METAR KP69 300252Z AUTO 35003KT 24/16 A2994 RMK AO1 SLP119 T02440156
53008





000
SAUS45 KMSO 300154
MTRP69
METAR KP69 300152Z AUTO 00000KT 28/17 A2992 RMK AO1 SLP112 T02780167





000
SAUS45 KMSO 300054
MTRP69
METAR KP69 300052Z AUTO 00000KT 31/17 A2991 RMK AO1 SLP104 T03060172





000
SAUS45 KMSO 292354
MTRP69
METAR KP69 292352Z AUTO 35003KT 34/16 A2992 RMK AO1 SLP104 T03390161
10417 20272 56014





000
SAUS45 KMSO 292255
MTRP69
METAR KP69 292252Z AUTO 00000KT 37/13 A2992 RMK AO1 SLP103 T03720133





000
SAUS45 KMSO 292154
MTRP69
METAR KP69 292152Z AUTO 00000KT 41/07 A2993 RMK AO1 SLP102 T04110067





000
SAUS45 KMSO 292055
MTRP69
METAR KP69 292052Z AUTO 00000KT 39/12 A2996 RMK AO1 SLP112 T03940117
56031





000
SAUS45 KMSO 291954
MTRP69
METAR KP69 291952Z AUTO 33003KT 36/11 A2999 RMK AO1 SLP123 T03560106





000
SAUS45 KMSO 291854
MTRP69
METAR KP69 291852Z AUTO 35003KT 32/11 A3002 RMK AO1 SLP138 T03170111





000
SAUS45 KMSO 291754
MTRP69
METAR KP69 291752Z AUTO 36003KT 27/13 A3006 RMK AO1 SLP154 T02670128
10272 20150 58024





000
SAUS45 KMSO 291654
MTRP69
METAR KP69 291652Z AUTO 00000KT 24/13 A3009 RMK AO1 SLP165 T02440128





000
SAUS45 KMSO 291553
MTRP69
METAR KP69 291552Z AUTO 00000KT 21/13 A3012 RMK AO1 SLP176 T02060128





000
SAUS45 KMSO 291454
MTRP69
METAR KP69 291452Z AUTO 00000KT 18/13 A3013 RMK AO1 SLP182 T01780133
50008





000
SAUS45 KMSO 291354
MTRP69
METAR KP69 291352Z AUTO 35003KT 16/13 A3013 RMK AO1 SLP183 T01560128





000
SAUS45 KMSO 291255
MTRP69
METAR KP69 291252Z AUTO 36003KT 16/13 A3012 RMK AO1 SLP177 T01560128





000
SAUS45 KMSO 291154
MTRP69
METAR KP69 291152Z AUTO 32003KT 16/13 A3011 RMK AO1 SLP171 T01560133
10211 20156 53014





000
SAUS45 KMSO 291054
MTRP69
METAR KP69 291052Z AUTO 34003KT 16/13 A3009 RMK AO1 SLP159 T01610133





000
SAUS45 KMSO 290954
MTRP69
METAR KP69 290952Z AUTO 35003KT 17/14 A3007 RMK AO1 SLP153 T01720139





000
SAUS45 KMSO 290855
MTRP69
METAR KP69 290852Z AUTO 34003KT 18/14 A3006 RMK AO1 SLP149 T01780144
51013





000
SAUS45 KMSO 290754
MTRP69
METAR KP69 290752Z AUTO 35003KT 19/15 A3005 RMK AO1 SLP148 T01890150
403830139





000
SAUS45 KMSO 290654
MTRP69
METAR KP69 290652Z AUTO 35003KT 21/15 A3004 RMK AO1 SLP146 T02060150





000
SAUS45 KMSO 290554
MTRP69
METAR KP69 290552Z AUTO 35003KT 21/16 A3002 RMK AO1 SLP143 T02110156
10322 20211 51023





000
SAUS45 KMSO 290455
MTRP69
METAR KP69 290452Z AUTO 36004KT 22/16 A3001 RMK AO1 SLP139 T02220156





000
SAUS45 KMSO 290356
MTRP69
METAR KP69 290352Z AUTO 35003KT 24/16 A2998 RMK AO1 SLP131 T02440161





000
SAUS45 KMSO 290256
MTRP69
METAR KP69 290252Z AUTO 35003KT 26/17 A2995 RMK AO1 SLP122 T02610172
53007





000
SAUS45 KMSO 290153
MTRP69
METAR KP69 290152Z AUTO 01003KT 27/17 A2994 RMK AO1 SLP120 T02720167





000
SAUS45 KMSO 290054
MTRP69
METAR KP69 290052Z AUTO 00000KT 29/17 A2994 RMK AO1 SLP116 T02940167





000
SAUS45 KMSO 282354
MTRP69
METAR KP69 282352Z AUTO 35003KT 32/16 A2993 RMK AO1 SLP112 T03220156
10383 20261 56017





000
SAUS45 KMSO 282255
MTRP69
METAR KP69 282252Z AUTO 00000KT 38/12 A2994 RMK AO1 SLP107 T03780117





000
SAUS45 KMSO 282153
MTRP69
METAR KP69 282152Z AUTO 00000KT 37/14 A2996 RMK AO1 SLP115 T03720144





000
SAUS45 KMSO 282054
MTRP69
METAR KP69 282052Z AUTO 00000KT 37/11 A2998 RMK AO1 SLP123 T03720106
58032





000
SAUS45 KMSO 281955
MTRP69
METAR KP69 281952Z AUTO 36003KT 33/11 A3002 RMK AO1 SLP138 T03280106





000
SAUS45 KMSO 281853
MTRP69
METAR KP69 281852Z AUTO 36003KT 30/11 A3005 RMK AO1 SLP152 T03000111





000
SAUS45 KMSO 281754
MTRP69
METAR KP69 281752Z AUTO 00000KT 26/11 A3008 RMK AO1 SLP165 T02560106
10267 20139 58026





000
SAUS45 KMSO 281654
MTRP69
METAR KP69 281652Z AUTO 35004KT 22/12 A3012 RMK AO1 SLP179 T02170117





000
SAUS45 KMSO 281554
MTRP69
METAR KP69 281552Z AUTO 00000KT 20/11 A3014 RMK AO1 SLP188 T02000111





000
SAUS45 KMSO 281454
MTRP69
METAR KP69 281452Z AUTO 00000KT 17/11 A3016 RMK AO1 SLP196 T01720111
50014





000
SAUS45 KMSO 281354
MTRP69
METAR KP69 281352Z AUTO 00000KT 14/11 A3017 RMK AO1 SLP197 T01390111





000
SAUS45 KMSO 281254
MTRP69
METAR KP69 281252Z AUTO 00000KT 14/11 A3015 RMK AO1 SLP189 T01390106





000
SAUS45 KMSO 281154
MTRP69
METAR KP69 281152Z AUTO 33003KT 14/11 A3012 RMK AO1 SLP173 T01440111
10189 20144 53009





000
SAUS45 KMSO 281054
MTRP69
METAR KP69 281052Z AUTO 34004KT 15/11 A3010 RMK AO1 SLP165 T01500111





000
SAUS45 KMSO 280954
MTRP69
METAR KP69 280952Z AUTO 00000KT 16/12 A3008 RMK AO1 SLP160 T01560117





000
SAUS45 KMSO 280854
MTRP69
METAR KP69 280852Z AUTO 34004KT 16/12 A3009 RMK AO1 SLP163 T01610117
51010





000
SAUS45 KMSO 280754
MTRP69
METAR KP69 280752Z AUTO 00000KT 17/12 A3009 RMK AO1 SLP164 T01720122
403780106





000
SAUS45 KMSO 280655
MTRP69
METAR KP69 280652Z AUTO 34005KT 18/12 A3007 RMK AO1 SLP160 T01780122





000
SAUS45 KMSO 280555
MTRP69
METAR KP69 280552Z AUTO 33004KT 19/12 A3006 RMK AO1 SLP158 T01890122
10344 20189 51020





000
SAUS45 KMSO 280454
MTRP69
METAR KP69 280452Z AUTO 00000KT 20/13 A3004 RMK AO1 SLP154 T02000128





000
SAUS45 KMSO 280356
MTRP69
METAR KP69 280352Z AUTO 36004KT 22/13 A3002 RMK AO1 SLP149 T02220128





000
SAUS45 KMSO 280254
MTRP69
METAR KP69 280252Z AUTO 00000KT 23/13 A3000 RMK AO1 SLP144 T02330133
53009





000
SAUS45 KMSO 280154
MTRP69
METAR KP69 280152Z AUTO 35003KT 26/12 A2998 RMK AO1 SLP135 T02610117





000
SAUS45 KMSO 280054
MTRP69
METAR KP69 280052Z AUTO 35003KT 29/11 A2997 RMK AO1 SLP130 T02890111





000
SAUS45 KMSO 272354
MTRP69
METAR KP69 272352Z AUTO 00000KT 35/13 A2997 RMK AO1 SLP125 T03500128
10378 20244 56021





000
SAUS45 KMSO 272254
MTRP69
METAR KP69 272252Z AUTO 00000KT 37/13 A2998 RMK AO1 SLP127 T03670128





000
SAUS45 KMSO 272154
MTRP69
METAR KP69 272152Z AUTO 00000KT 36/12 A3000 RMK AO1 SLP133 T03560117





000
SAUS45 KMSO 272054
MTRP69
METAR KP69 272052Z AUTO 00000KT 35/09 A3003 RMK AO1 SLP144 T03500094
56034





000
SAUS45 KMSO 271954
MTRP69
METAR KP69 271952Z AUTO 35003KT 31/09 A3006 RMK AO1 SLP157 T03110089





000
SAUS45 KMSO 271855
MTRP69
METAR KP69 271852Z AUTO 35003KT 28/07 A3010 RMK AO1 SLP171 T02830072





000
SAUS45 KMSO 271755
MTRP69
METAR KP69 271752Z AUTO 35003KT 24/07 A3014 RMK AO1 SLP186 T02440067
10244 20106 58027





000
SAUS45 KMSO 271654
MTRP69
METAR KP69 271652Z AUTO 00000KT 22/08 A3017 RMK AO1 SLP199 T02170078





000
SAUS45 KMSO 271554
MTRP69
METAR KP69 271552Z AUTO 00000KT 17/08 A3020 RMK AO1 SLP212 T01670083





000
SAUS45 KMSO 271454
MTRP69
METAR KP69 271452Z AUTO 00000KT 13/08 A3022 RMK AO1 SLP222 T01280083
50003





000
SAUS45 KMSO 271354
MTRP69
METAR KP69 271352Z AUTO 00000KT 11/08 A3023 RMK AO1 SLP223 T01110078





000
SAUS45 KMSO 271254
MTRP69
METAR KP69 271252Z AUTO 00000KT 11/08 A3022 RMK AO1 SLP220 T01110078





000
SAUS45 KMSO 271154
MTRP69
METAR KP69 271152Z AUTO 33003KT 11/08 A3021 RMK AO1 SLP210 T01110078
10167 20111 53010





000
SAUS45 KMSO 271054
MTRP69
METAR KP69 271052Z AUTO 33003KT 12/08 A3020 RMK AO1 SLP203 T01220083





000
SAUS45 KMSO 270954
MTRP69
METAR KP69 270952Z AUTO 00000KT 13/08 A3019 RMK AO1 SLP198 T01280083





000
SAUS45 KMSO 270854
MTRP69
METAR KP69 270852Z AUTO 33003KT 13/09 A3018 RMK AO1 SLP196 T01330089
51015





000
SAUS45 KMSO 270753
MTRP69
METAR KP69 270752Z AUTO 35004KT 14/09 A3016 RMK AO1 SLP192 T01440089
403560100





000
SAUS45 KMSO 270654
MTRP69
METAR KP69 270652Z AUTO 36003KT 16/09 A3015 RMK AO1 SLP191 T01560094





000
SAUS45 KMSO 270554
MTRP69
METAR KP69 270552Z AUTO 34003KT 16/09 A3013 RMK AO1 SLP186 T01610094
10344 20161 51025





000
SAUS45 KMSO 270454
MTRP69
METAR KP69 270452Z AUTO 00000KT 18/10 A3011 RMK AO1 SLP181 T01780100





000
SAUS45 KMSO 270354
MTRP69
METAR KP69 270352Z AUTO 00000KT 19/10 A3008 RMK AO1 SLP174 T01940100





    US Dept of Commerce
    National Oceanic and Atmospheric Administration
    National Weather Service
    1325 East West Highway
    Silver Spring, MD 20910
    Page Author: NWS Internet Services Team
Disclaimer
Information Quality
Credits
Glossary
Privacy Policy
Freedom of Information Act (FOIA)
About Us
Career Opportunities